sensor_id;sensor_type;location;lat;lon;timestamp;pressure;altitude;pressure_sealevel;temperature;humidity
49841;BME280;35738;49.890;5.930;2023-01-25T00:02:11;97358.69;;;-1.62;100.00
49841;BME280;35738;49.890;5.930;2023-01-25T00:04:38;97361.97;;;-1.53;100.00
49841;BME280;35738;49.890;5.930;2023-01-25T00:07:04;97355.81;;;-1.67;100.00
49841;BME280;35738;49.890;5.930;2023-01-25T00:09:31;97360.84;;;-1.77;100.00
49841;BME280;35738;49.890;5.930;2023-01-25T00:11:58;97352.34;;;-1.74;100.00
49841;BME280;35738;49.890;5.930;2023-01-25T00:14:24;97352.09;;;-1.66;100.00
49841;BME280;35738;49.890;5.930;2023-01-25T00:16:51;97344.47;;;-1.76;100.00
49841;BME280;35738;49.890;5.930;2023-01-25T00:19:18;97346.97;;;-1.81;100.00
49841;BME280;35738;49.890;5.930;2023-01-25T00:21:45;97347.88;;;-1.94;100.00
49841;BME280;35738;49.890;5.930;2023-01-25T00:24:13;97341.81;;;-1.82;100.00
49841;BME280;35738;49.890;5.930;2023-01-25T00:26:41;97341.22;;;-1.91;100.00
49841;BME280;35738;49.890;5.930;2023-01-25T00:29:13;97337.56;;;-2.03;100.00
49841;BME280;35738;49.890;5.930;2023-01-25T00:39:51;97337.91;;;-1.55;100.00
49841;BME280;35738;49.890;5.930;2023-01-25T00:42:18;97330.63;;;-1.86;100.00
49841;BME280;35738;49.890;5.930;2023-01-25T00:44:46;97322.50;;;-1.79;100.00
49841;BME280;35738;49.890;5.930;2023-01-25T00:47:14;97323.41;;;-1.92;100.00
49841;BME280;35738;49.890;5.930;2023-01-25T00:49:42;97320.25;;;-1.89;100.00
49841;BME280;35738;49.890;5.930;2023-01-25T00:52:09;97319.41;;;-1.83;100.00
49841;BME280;35738;49.890;5.930;2023-01-25T00:54:36;97324.44;;;-1.93;100.00
49841;BME280;35738;49.890;5.930;2023-01-25T00:57:03;97318.25;;;-2.00;100.00
49841;BME280;35738;49.890;5.930;2023-01-25T00:59:30;97324.88;;;-1.96;100.00
49841;BME280;35738;49.890;5.930;2023-01-25T01:01:57;97320.94;;;-2.00;100.00
49841;BME280;35738;49.890;5.930;2023-01-25T01:04:24;97316.59;;;-2.01;100.00
49841;BME280;35738;49.890;5.930;2023-01-25T01:06:51;97316.47;;;-2.19;100.00
49841;BME280;35738;49.890;5.930;2023-01-25T01:09:22;97310.41;;;-2.08;100.00
49841;BME280;35738;49.890;5.930;2023-01-25T01:11:49;97312.19;;;-1.89;100.00
49841;BME280;35738;49.890;5.930;2023-01-25T01:14:15;97309.97;;;-2.05;100.00
49841;BME280;35738;49.890;5.930;2023-01-25T01:16:42;97308.56;;;-2.14;100.00
49841;BME280;35738;49.890;5.930;2023-01-25T01:19:09;97307.09;;;-2.10;100.00
49841;BME280;35738;49.890;5.930;2023-01-25T01:21:36;97318.50;;;-2.08;100.00
49841;BME280;35738;49.890;5.930;2023-01-25T01:24:03;97313.19;;;-2.35;100.00
49841;BME280;35738;49.890;5.930;2023-01-25T01:26:30;97315.63;;;-2.27;100.00
49841;BME280;35738;49.890;5.930;2023-01-25T01:28:57;97305.09;;;-2.21;100.00
49841;BME280;35738;49.890;5.930;2023-01-25T01:31:25;97318.09;;;-2.12;100.00
49841;BME280;35738;49.890;5.930;2023-01-25T01:33:53;97309.97;;;-2.05;100.00
49841;BME280;35738;49.890;5.930;2023-01-25T01:36:25;97311.88;;;-2.12;100.00
49841;BME280;35738;49.890;5.930;2023-01-25T01:38:53;97304.88;;;-2.27;100.00
49841;BME280;35738;49.890;5.930;2023-01-25T01:41:20;97308.31;;;-2.06;100.00
49841;BME280;35738;49.890;5.930;2023-01-25T01:43:47;97305.16;;;-1.97;100.00
49841;BME280;35738;49.890;5.930;2023-01-25T01:46:33;97308.56;;;-2.14;100.00
49841;BME280;35738;49.890;5.930;2023-01-25T01:49:12;97295.84;;;-2.01;100.00
49841;BME280;35738;49.890;5.930;2023-01-25T01:51:48;97301.22;;;-1.94;100.00
49841;BME280;35738;49.890;5.930;2023-01-25T01:54:20;97299.59;;;-2.02;100.00
49841;BME280;35738;49.890;5.930;2023-01-25T01:57:13;97303.41;;;-2.16;100.00
49841;BME280;35738;49.890;5.930;2023-01-25T02:00:06;97295.84;;;-2.01;100.00
49841;BME280;35738;49.890;5.930;2023-01-25T02:02:34;97301.19;;;-1.87;100.00
49841;BME280;35738;49.890;5.930;2023-01-25T02:05:04;97296.34;;;-2.24;100.00
49841;BME280;35738;49.890;5.930;2023-01-25T02:07:35;97297.22;;;-2.36;100.00
49841;BME280;35738;49.890;5.930;2023-01-25T02:10:04;97304.50;;;-2.37;100.00
49841;BME280;35738;49.890;5.930;2023-01-25T02:12:31;97306.56;;;-2.39;100.00
49841;BME280;35738;49.890;5.930;2023-01-25T02:14:58;97301.78;;;-2.30;100.00
49841;BME280;35738;49.890;5.930;2023-01-25T02:17:27;97303.81;;;-2.26;100.00
49841;BME280;35738;49.890;5.930;2023-01-25T02:22:59;97301.56;;;-2.22;100.00
49841;BME280;35738;49.890;5.930;2023-01-25T02:25:28;97297.22;;;-2.30;100.00
49841;BME280;35738;49.890;5.930;2023-01-25T02:28:04;97305.09;;;-2.21;100.00
49841;BME280;35738;49.890;5.930;2023-01-25T02:30:33;97295.09;;;-2.14;100.00
49841;BME280;35738;49.890;5.930;2023-01-25T02:32:59;97287.19;;;-2.09;100.00
49841;BME280;35738;49.890;5.930;2023-01-25T02:38:05;97284.84;;;-1.99;100.00
49841;BME280;35738;49.890;5.930;2023-01-25T02:40:37;97286.75;;;-2.06;100.00
49841;BME280;35738;49.890;5.930;2023-01-25T02:43:09;97288.41;;;-2.05;100.00
49841;BME280;35738;49.890;5.930;2023-01-25T02:45:36;97287.25;;;-2.22;100.00
49841;BME280;35738;49.890;5.930;2023-01-25T02:48:03;97289.13;;;-2.30;100.00
49841;BME280;35738;49.890;5.930;2023-01-25T02:50:29;97303.44;;;-2.22;100.00
49841;BME280;35738;49.890;5.930;2023-01-25T02:52:56;97306.31;;;-2.17;100.00
49841;BME280;35738;49.890;5.930;2023-01-25T02:55:22;97298.50;;;-1.94;100.00
49841;BME280;35738;49.890;5.930;2023-01-25T02:57:49;97300.50;;;-1.76;100.00
49841;BME280;35738;49.890;5.930;2023-01-25T03:00:16;97292.56;;;-1.71;100.00
49841;BME280;35738;49.890;5.930;2023-01-25T03:02:43;97293.41;;;-2.09;100.00
49841;BME280;35738;49.890;5.930;2023-01-25T03:05:09;97295.38;;;-1.91;100.00
49841;BME280;35738;49.890;5.930;2023-01-25T03:07:36;97290.94;;;-2.10;100.00
49841;BME280;35738;49.890;5.930;2023-01-25T03:10:03;97287.28;;;-2.36;100.00
49841;BME280;35738;49.890;5.930;2023-01-25T03:12:30;97283.13;;;-2.32;100.00
49841;BME280;35738;49.890;5.930;2023-01-25T03:14:57;97286.25;;;-2.35;100.00
49841;BME280;35738;49.890;5.930;2023-01-25T03:17:23;97278.59;;;-2.38;100.00
49841;BME280;35738;49.890;5.930;2023-01-25T03:19:50;97283.09;;;-2.25;100.00
49841;BME280;35738;49.890;5.930;2023-01-25T03:22:19;97274.00;;;-2.31;100.00
49841;BME280;35738;49.890;5.930;2023-01-25T03:24:45;97277.28;;;-2.15;100.00
49841;BME280;35738;49.890;5.930;2023-01-25T03:27:12;97270.81;;;-2.08;100.00
49841;BME280;35738;49.890;5.930;2023-01-25T03:29:44;97270.59;;;-2.06;100.00
49841;BME280;35738;49.890;5.930;2023-01-25T03:32:11;97271.84;;;-2.09;100.00
49841;BME280;35738;49.890;5.930;2023-01-25T03:34:38;97270.97;;;-2.03;100.00
49841;BME280;35738;49.890;5.930;2023-01-25T03:37:04;97266.84;;;-2.05;100.00
49841;BME280;35738;49.890;5.930;2023-01-25T03:39:31;97261.28;;;-2.10;100.00
49841;BME280;35738;49.890;5.930;2023-01-25T03:41:57;97270.56;;;-2.00;100.00
49841;BME280;35738;49.890;5.930;2023-01-25T03:44:24;97264.13;;;-2.50;100.00
49841;BME280;35738;49.890;5.930;2023-01-25T03:46:50;97267.09;;;-2.13;100.00
49841;BME280;35738;49.890;5.930;2023-01-25T03:49:17;97266.28;;;-2.14;100.00
49841;BME280;35738;49.890;5.930;2023-01-25T03:51:44;97254.50;;;-2.19;100.00
49841;BME280;35738;49.890;5.930;2023-01-25T03:54:11;97259.66;;;-2.25;100.00
49841;BME280;35738;49.890;5.930;2023-01-25T03:56:38;97259.50;;;-2.36;100.00
49841;BME280;35738;49.890;5.930;2023-01-25T03:59:04;97263.66;;;-2.34;100.00
49841;BME280;35738;49.890;5.930;2023-01-25T04:01:31;97257.03;;;-2.38;100.00
49841;BME280;35738;49.890;5.930;2023-01-25T04:03:58;97264.59;;;-2.08;100.00
49841;BME280;35738;49.890;5.930;2023-01-25T04:06:24;97264.72;;;-1.97;100.00
49841;BME280;35738;49.890;5.930;2023-01-25T04:08:51;97262.34;;;-2.25;100.00
49841;BME280;35738;49.890;5.930;2023-01-25T04:11:17;97252.41;;;-2.17;100.00
49841;BME280;35738;49.890;5.930;2023-01-25T04:13:44;97253.44;;;-2.18;100.00
49841;BME280;35738;49.890;5.930;2023-01-25T04:16:11;97259.38;;;-2.03;100.00
49841;BME280;35738;49.890;5.930;2023-01-25T04:18:38;97250.31;;;-2.15;100.00
49841;BME280;35738;49.890;5.930;2023-01-25T04:21:06;97253.16;;;-2.04;100.00
49841;BME280;35738;49.890;5.930;2023-01-25T04:23:32;97253.63;;;-2.13;100.00
49841;BME280;35738;49.890;5.930;2023-01-25T04:26:01;97249.03;;;-2.06;100.00
49841;BME280;35738;49.890;5.930;2023-01-25T04:28:31;97247.00;;;-2.17;100.00
49841;BME280;35738;49.890;5.930;2023-01-25T04:30:58;97241.63;;;-2.24;100.00
49841;BME280;35738;49.890;5.930;2023-01-25T04:33:25;97247.63;;;-2.15;100.00
49841;BME280;35738;49.890;5.930;2023-01-25T04:35:53;97242.06;;;-2.20;100.00
49841;BME280;35738;49.890;5.930;2023-01-25T04:38:20;97238.69;;;-2.09;100.00
49841;BME280;35738;49.890;5.930;2023-01-25T04:40:46;97246.75;;;-2.09;100.00
49841;BME280;35738;49.890;5.930;2023-01-25T04:43:14;97241.81;;;-2.12;100.00
49841;BME280;35738;49.890;5.930;2023-01-25T04:45:41;97244.31;;;-2.17;100.00
49841;BME280;35738;49.890;5.930;2023-01-25T04:48:09;97244.03;;;-2.03;100.00
49841;BME280;35738;49.890;5.930;2023-01-25T04:50:40;97246.13;;;-2.05;100.00
49841;BME280;35738;49.890;5.930;2023-01-25T04:53:09;97235.84;;;-1.89;100.00
49841;BME280;35738;49.890;5.930;2023-01-25T04:55:36;97241.72;;;-1.99;100.00
49841;BME280;35738;49.890;5.930;2023-01-25T04:58:03;97244.81;;;-1.96;100.00
49841;BME280;35738;49.890;5.930;2023-01-25T05:00:30;97240.63;;;-1.92;100.00
49841;BME280;35738;49.890;5.930;2023-01-25T05:02:57;97241.09;;;-1.70;100.00
49841;BME280;35738;49.890;5.930;2023-01-25T05:05:24;97242.50;;;-1.61;100.00
49841;BME280;35738;49.890;5.930;2023-01-25T05:07:51;97240.53;;;-1.78;100.00
49841;BME280;35738;49.890;5.930;2023-01-25T05:10:17;97234.50;;;-2.05;100.00
49841;BME280;35738;49.890;5.930;2023-01-25T05:12:44;97235.72;;;-2.01;100.00
49841;BME280;35738;49.890;5.930;2023-01-25T05:15:11;97231.28;;;-2.20;100.00
49841;BME280;35738;49.890;5.930;2023-01-25T05:17:37;97234.41;;;-2.30;100.00
49841;BME280;35738;49.890;5.930;2023-01-25T05:20:04;97228.69;;;-2.02;100.00
49841;BME280;35738;49.890;5.930;2023-01-25T05:22:31;97225.53;;;-1.99;100.00
49841;BME280;35738;49.890;5.930;2023-01-25T05:24:58;97226.41;;;-2.05;100.00
49841;BME280;35738;49.890;5.930;2023-01-25T05:27:24;97227.03;;;-2.03;100.00
49841;BME280;35738;49.890;5.930;2023-01-25T05:29:51;97223.97;;;-2.13;100.00
49841;BME280;35738;49.890;5.930;2023-01-25T05:32:20;97222.75;;;-2.17;100.00
49841;BME280;35738;49.890;5.930;2023-01-25T05:34:47;97219.69;;;-2.28;100.00
49841;BME280;35738;49.890;5.930;2023-01-25T05:37:17;97222.19;;;-2.33;100.00
49841;BME280;35738;49.890;5.930;2023-01-25T05:39:44;97220.53;;;-2.34;100.00
49841;BME280;35738;49.890;5.930;2023-01-25T05:42:12;97219.28;;;-2.31;100.00
49841;BME280;35738;49.890;5.930;2023-01-25T05:44:39;97220.94;;;-2.30;100.00
49841;BME280;35738;49.890;5.930;2023-01-25T05:47:11;97220.72;;;-2.29;100.00
49841;BME280;35738;49.890;5.930;2023-01-25T05:49:38;97220.94;;;-2.30;100.00
49841;BME280;35738;49.890;5.930;2023-01-25T05:52:04;97225.03;;;-2.14;100.00
49841;BME280;35738;49.890;5.930;2023-01-25T05:54:31;97216.88;;;-2.46;100.00
49841;BME280;35738;49.890;5.930;2023-01-25T05:56:58;97217.53;;;-2.57;100.00
49841;BME280;35738;49.890;5.930;2023-01-25T05:59:25;97219.41;;;-2.58;100.00
49841;BME280;35738;49.890;5.930;2023-01-25T06:01:52;97211.84;;;-2.36;100.00
49841;BME280;35738;49.890;5.930;2023-01-25T06:04:19;97215.28;;;-2.15;100.00
49841;BME280;35738;49.890;5.930;2023-01-25T06:06:45;97208.47;;;-2.18;100.00
49841;BME280;35738;49.890;5.930;2023-01-25T06:09:13;97214.78;;;-2.44;100.00
49841;BME280;35738;49.890;5.930;2023-01-25T06:11:42;97199.38;;;-2.30;100.00
49841;BME280;35738;49.890;5.930;2023-01-25T06:14:10;97216.03;;;-2.46;100.00
49841;BME280;35738;49.890;5.930;2023-01-25T06:16:37;97213.13;;;-2.45;100.00
49841;BME280;35738;49.890;5.930;2023-01-25T06:19:04;97206.03;;;-2.33;100.00
49841;BME280;35738;49.890;5.930;2023-01-25T06:21:32;97209.75;;;-2.34;100.00
49841;BME280;35738;49.890;5.930;2023-01-25T06:24:03;97211.22;;;-2.38;100.00
49841;BME280;35738;49.890;5.930;2023-01-25T06:26:30;97210.09;;;-2.17;100.00
49841;BME280;35738;49.890;5.930;2023-01-25T06:28:57;97208.63;;;-2.13;100.00
49841;BME280;35738;49.890;5.930;2023-01-25T06:31:23;97202.84;;;-2.23;100.00
49841;BME280;35738;49.890;5.930;2023-01-25T06:33:51;97210.25;;;-2.05;100.00
49841;BME280;35738;49.890;5.930;2023-01-25T06:36:19;97206.03;;;-1.95;100.00
49841;BME280;35738;49.890;5.930;2023-01-25T06:38:48;97205.03;;;-2.00;100.00
49841;BME280;35738;49.890;5.930;2023-01-25T06:41:16;97197.94;;;-1.95;100.00
49841;BME280;35738;49.890;5.930;2023-01-25T06:43:43;97196.72;;;-1.99;100.00
49841;BME280;35738;49.890;5.930;2023-01-25T06:46:10;97187.72;;;-2.24;100.00
49841;BME280;35738;49.890;5.930;2023-01-25T06:48:38;97189.50;;;-2.05;100.00
49841;BME280;35738;49.890;5.930;2023-01-25T06:51:07;97189.38;;;-2.23;100.00
49841;BME280;35738;49.890;5.930;2023-01-25T06:53:36;97186.94;;;-2.31;100.00
49841;BME280;35738;49.890;5.930;2023-01-25T06:56:10;97185.34;;;-2.39;100.00
49841;BME280;35738;49.890;5.930;2023-01-25T06:58:38;97182.38;;;-2.31;100.00
49841;BME280;35738;49.890;5.930;2023-01-25T07:01:07;97191.84;;;-2.15;100.00
49841;BME280;35738;49.890;5.930;2023-01-25T07:03:37;97191.59;;;-2.07;100.00
49841;BME280;35738;49.890;5.930;2023-01-25T07:06:06;97189.97;;;-2.14;100.00
49841;BME280;35738;49.890;5.930;2023-01-25T07:08:34;97192.38;;;-2.38;100.00
49841;BME280;35738;49.890;5.930;2023-01-25T07:11:03;97194.19;;;-2.32;100.00
49841;BME280;35738;49.890;5.930;2023-01-25T07:13:32;97182.28;;;-2.49;100.00
49841;BME280;35738;49.890;5.930;2023-01-25T07:16:04;97191.09;;;-2.73;100.00
49841;BME280;35738;49.890;5.930;2023-01-25T07:18:32;97187.84;;;-2.44;100.00
49841;BME280;35738;49.890;5.930;2023-01-25T07:21:07;97193.34;;;-2.26;100.00
49841;BME280;35738;49.890;5.930;2023-01-25T07:23:35;97183.56;;;-2.13;100.00
49841;BME280;35738;49.890;5.930;2023-01-25T07:26:05;97170.53;;;-2.61;100.00
49841;BME280;35738;49.890;5.930;2023-01-25T07:28:32;97169.59;;;-2.42;100.00
49841;BME280;35738;49.890;5.930;2023-01-25T07:31:05;97167.66;;;-2.66;100.00
49841;BME280;35738;49.890;5.930;2023-01-25T07:33:33;97168.34;;;-2.77;100.00
49841;BME280;35738;49.890;5.930;2023-01-25T07:36:01;97164.28;;;-2.55;100.00
49841;BME280;35738;49.890;5.930;2023-01-25T07:38:28;97161.19;;;-2.59;100.00
49841;BME280;35738;49.890;5.930;2023-01-25T07:40:55;97170.03;;;-2.45;100.00
49841;BME280;35738;49.890;5.930;2023-01-25T07:43:22;97166.41;;;-2.64;100.00
49841;BME280;35738;49.890;5.930;2023-01-25T07:45:50;97169.44;;;-2.47;100.00
49841;BME280;35738;49.890;5.930;2023-01-25T07:48:18;97175.94;;;-2.30;100.00
49841;BME280;35738;49.890;5.930;2023-01-25T07:50:45;97175.91;;;-2.23;100.00
49841;BME280;35738;49.890;5.930;2023-01-25T07:53:15;97177.56;;;-2.15;100.00
49841;BME280;35738;49.890;5.930;2023-01-25T07:55:42;97180.50;;;-2.30;100.00
49841;BME280;35738;49.890;5.930;2023-01-25T07:58:12;97181.34;;;-2.30;100.00
49841;BME280;35738;49.890;5.930;2023-01-25T08:00:38;97179.38;;;-2.09;100.00
49841;BME280;35738;49.890;5.930;2023-01-25T08:03:05;97176.22;;;-2.38;100.00
49841;BME280;35738;49.890;5.930;2023-01-25T08:05:33;97186.56;;;-2.35;100.00
49841;BME280;35738;49.890;5.930;2023-01-25T08:08:00;97184.75;;;-2.47;100.00
49841;BME280;35738;49.890;5.930;2023-01-25T08:10:26;97180.69;;;-2.25;100.00
49841;BME280;35738;49.890;5.930;2023-01-25T08:12:53;97180.59;;;-2.05;100.00
49841;BME280;35738;49.890;5.930;2023-01-25T08:15:19;97178.84;;;-1.93;100.00
49841;BME280;35738;49.890;5.930;2023-01-25T08:17:46;97176.53;;;-1.89;100.00
49841;BME280;35738;49.890;5.930;2023-01-25T08:20:13;97176.47;;;-1.83;100.00
49841;BME280;35738;49.890;5.930;2023-01-25T08:22:39;97179.78;;;-1.81;100.00
49841;BME280;35738;49.890;5.930;2023-01-25T08:25:06;97183.19;;;-1.92;100.00
49841;BME280;35738;49.890;5.930;2023-01-25T08:27:33;97180.66;;;-1.87;100.00
49841;BME280;35738;49.890;5.930;2023-01-25T08:30:01;97194.97;;;-1.86;100.00
49841;BME280;35738;49.890;5.930;2023-01-25T08:32:27;97190.94;;;-2.02;100.00
49841;BME280;35738;49.890;5.930;2023-01-25T08:34:54;97180.59;;;-2.05;100.00
49841;BME280;35738;49.890;5.930;2023-01-25T08:37:20;97178.03;;;-1.94;100.00
49841;BME280;35738;49.890;5.930;2023-01-25T08:39:47;97184.25;;;-1.93;100.00
49841;BME280;35738;49.890;5.930;2023-01-25T08:42:13;97177.41;;;-1.96;100.00
49841;BME280;35738;49.890;5.930;2023-01-25T08:44:40;97180.69;;;-2.18;100.00
49841;BME280;35738;49.890;5.930;2023-01-25T08:47:07;97183.91;;;-2.03;100.00
49841;BME280;35738;49.890;5.930;2023-01-25T08:49:33;97178.13;;;-2.07;100.00
49841;BME280;35738;49.890;5.930;2023-01-25T08:52:00;97179.03;;;-2.26;100.00
49841;BME280;35738;49.890;5.930;2023-01-25T08:54:27;97172.34;;;-2.10;100.00
49841;BME280;35738;49.890;5.930;2023-01-25T08:56:54;97184.41;;;-2.19;100.00
49841;BME280;35738;49.890;5.930;2023-01-25T08:59:20;97168.44;;;-1.89;100.00
49841;BME280;35738;49.890;5.930;2023-01-25T09:01:47;97178.13;;;-2.07;100.00
49841;BME280;35738;49.890;5.930;2023-01-25T09:04:14;97174.13;;;-1.73;100.00
49841;BME280;35738;49.890;5.930;2023-01-25T09:06:40;97160.84;;;-1.49;100.00
49841;BME280;35738;49.890;5.930;2023-01-25T09:09:07;97163.81;;;-1.33;100.00
49841;BME280;35738;49.890;5.930;2023-01-25T09:11:34;97162.22;;;-1.40;100.00
49841;BME280;35738;49.890;5.930;2023-01-25T09:14:03;97152.13;;;-1.26;100.00
49841;BME280;35738;49.890;5.930;2023-01-25T09:16:30;97156.53;;;-1.32;100.00
49841;BME280;35738;49.890;5.930;2023-01-25T09:18:59;97152.94;;;-1.26;100.00
49841;BME280;35738;49.890;5.930;2023-01-25T09:21:27;97155.19;;;-1.41;100.00
49841;BME280;35738;49.890;5.930;2023-01-25T09:23:54;97151.44;;;-1.65;100.00
49841;BME280;35738;49.890;5.930;2023-01-25T09:26:39;97153.09;;;-1.64;100.00
49841;BME280;35738;49.890;5.930;2023-01-25T09:29:10;97153.63;;;-1.55;100.00
49841;BME280;35738;49.890;5.930;2023-01-25T09:31:38;97145.00;;;-1.39;100.00
49841;BME280;35738;49.890;5.930;2023-01-25T09:34:06;97144.09;;;-1.33;100.00
49841;BME280;35738;49.890;5.930;2023-01-25T09:36:34;97145.47;;;-1.24;100.00
49841;BME280;35738;49.890;5.930;2023-01-25T09:39:01;97141.19;;;-1.56;100.00
49841;BME280;35738;49.890;5.930;2023-01-25T09:42:01;97141.91;;;-1.43;100.00
49841;BME280;35738;49.890;5.930;2023-01-25T09:47:55;97142.53;;;-1.66;100.00
49841;BME280;35738;49.890;5.930;2023-01-25T09:50:31;97132.44;;;-1.52;100.00
49841;BME280;35738;49.890;5.930;2023-01-25T09:53:20;97132.94;;;-1.62;100.00
49841;BME280;35738;49.890;5.930;2023-01-25T09:56:00;97133.97;;;-1.38;100.00
49841;BME280;35738;49.890;5.930;2023-01-25T09:58:34;97130.84;;;-1.35;100.00
49841;BME280;35738;49.890;5.930;2023-01-25T10:01:20;97129.91;;;-1.47;100.00
49841;BME280;35738;49.890;5.930;2023-01-25T10:06:38;97137.53;;;-1.87;100.00
49841;BME280;35738;49.890;5.930;2023-01-25T10:09:19;97125.59;;;-1.98;100.00
49841;BME280;35738;49.890;5.930;2023-01-25T10:11:50;97113.63;;;-1.83;100.00
49841;BME280;35738;49.890;5.930;2023-01-25T10:14:17;97116.69;;;-1.55;100.00
49841;BME280;35738;49.890;5.930;2023-01-25T10:22:16;97110.75;;;-1.39;100.00
49841;BME280;35738;49.890;5.930;2023-01-25T10:32:51;97108.88;;;-1.38;100.00
49841;BME280;35738;49.890;5.930;2023-01-25T10:35:25;97093.41;;;-0.94;100.00
49841;BME280;35738;49.890;5.930;2023-01-25T10:38:10;97091.06;;;-0.91;100.00
49841;BME280;35738;49.890;5.930;2023-01-25T10:40:45;97080.06;;;-1.08;100.00
49841;BME280;35738;49.890;5.930;2023-01-25T10:43:20;97082.84;;;-0.96;100.00
49841;BME280;35738;49.890;5.930;2023-01-25T10:45:48;97073.31;;;-0.99;100.00
49841;BME280;35738;49.890;5.930;2023-01-25T10:48:36;97079.47;;;-1.10;100.00
49841;BME280;35738;49.890;5.930;2023-01-25T10:51:04;97082.53;;;-1.06;100.00
49841;BME280;35738;49.890;5.930;2023-01-25T10:53:32;97071.94;;;-0.89;100.00
49841;BME280;35738;49.890;5.930;2023-01-25T10:56:11;97076.19;;;-1.12;100.00
49841;BME280;35738;49.890;5.930;2023-01-25T10:58:44;97070.88;;;-1.37;100.00
49841;BME280;35738;49.890;5.930;2023-01-25T11:01:23;97058.41;;;-1.19;100.00
49841;BME280;35738;49.890;5.930;2023-01-25T11:03:51;97054.53;;;-0.93;100.00
49841;BME280;35738;49.890;5.930;2023-01-25T11:06:29;97058.13;;;-0.81;100.00
49841;BME280;35738;49.890;5.930;2023-01-25T11:08:55;97049.03;;;-0.69;100.00
49841;BME280;35738;49.890;5.930;2023-01-25T11:13:53;97044.97;;;-0.59;100.00
49841;BME280;35738;49.890;5.930;2023-01-25T11:16:31;97040.34;;;-0.71;100.00
49841;BME280;35738;49.890;5.930;2023-01-25T11:18:59;97035.34;;;-0.55;100.00
49841;BME280;35738;49.890;5.930;2023-01-25T11:21:30;97033.66;;;-0.68;100.00
49841;BME280;35738;49.890;5.930;2023-01-25T11:26:36;97035.81;;;-0.77;100.00
49841;BME280;35738;49.890;5.930;2023-01-25T11:29:20;97023.44;;;-0.66;100.00
49841;BME280;35738;49.890;5.930;2023-01-25T11:31:49;97021.88;;;-1.04;100.00
49841;BME280;35738;49.890;5.930;2023-01-25T11:34:23;97009.41;;;-1.05;100.00
49841;BME280;35738;49.890;5.930;2023-01-25T11:40:21;96996.72;;;-0.33;100.00
49841;BME280;35738;49.890;5.930;2023-01-25T11:43:23;96988.78;;;-0.69;100.00
49841;BME280;35738;49.890;5.930;2023-01-25T11:51:40;96981.44;;;-0.39;100.00
49841;BME280;35738;49.890;5.930;2023-01-25T11:54:28;96974.63;;;-0.29;100.00
49841;BME280;35738;49.890;5.930;2023-01-25T12:00:55;96964.41;;;-0.04;100.00
49841;BME280;35738;49.890;5.930;2023-01-25T12:09:19;96949.00;;;-0.39;100.00
49841;BME280;35738;49.890;5.930;2023-01-25T12:25:47;96919.63;;;-0.23;100.00
49841;BME280;35738;49.890;5.930;2023-01-25T12:28:28;96904.09;;;-0.16;100.00
49841;BME280;35738;49.890;5.930;2023-01-25T12:33:46;96893.31;;;-0.63;100.00
49841;BME280;35738;49.890;5.930;2023-01-25T12:39:10;96873.56;;;-0.52;100.00
49841;BME280;35738;49.890;5.930;2023-01-25T12:41:42;96876.16;;;-0.57;100.00
49841;BME280;35738;49.890;5.930;2023-01-25T12:44:24;96876.81;;;-0.85;100.00
49841;BME280;35738;49.890;5.930;2023-01-25T12:52:51;96855.34;;;-0.45;100.00
49841;BME280;35738;49.890;5.930;2023-01-25T12:55:19;96850.06;;;-0.40;100.00
49841;BME280;35738;49.890;5.930;2023-01-25T12:57:57;96847.72;;;-0.48;100.00
49841;BME280;35738;49.890;5.930;2023-01-25T13:09:19;96844.88;;;-0.29;100.00
49841;BME280;35738;49.890;5.930;2023-01-25T13:11:49;96840.16;;;0.01;100.00
49841;BME280;35738;49.890;5.930;2023-01-25T13:16:44;96832.91;;;-0.80;100.00
49841;BME280;35738;49.890;5.930;2023-01-25T13:21:56;96824.63;;;-0.15;100.00
49841;BME280;35738;49.890;5.930;2023-01-25T13:24:26;96811.28;;;-0.34;100.00
49841;BME280;35738;49.890;5.930;2023-01-25T13:32:03;96795.19;;;-0.40;100.00
49841;BME280;35738;49.890;5.930;2023-01-25T13:39:57;96795.53;;;-0.37;100.00
49841;BME280;35738;49.890;5.930;2023-01-25T13:42:33;96786.59;;;-0.25;100.00
49841;BME280;35738;49.890;5.930;2023-01-25T13:45:24;96788.88;;;-0.92;100.00
49841;BME280;35738;49.890;5.930;2023-01-25T13:48:10;96772.31;;;-1.08;100.00
49841;BME280;35738;49.890;5.930;2023-01-25T13:50:48;96784.63;;;-1.00;100.00
49841;BME280;35738;49.890;5.930;2023-01-25T13:55:48;96768.78;;;-0.50;100.00
49841;BME280;35738;49.890;5.930;2023-01-25T14:03:15;96759.75;;;-0.67;100.00
49841;BME280;35738;49.890;5.930;2023-01-25T14:05:50;96763.03;;;-0.65;100.00
49841;BME280;35738;49.890;5.930;2023-01-25T14:08:18;96761.28;;;-0.94;100.00
49841;BME280;35738;49.890;5.930;2023-01-25T14:10:47;96754.00;;;-0.59;100.00
49841;BME280;35738;49.890;5.930;2023-01-25T14:13:15;96750.34;;;-0.65;100.00
49841;BME280;35738;49.890;5.930;2023-01-25T14:15:54;96750.22;;;-0.46;100.00
49841;BME280;35738;49.890;5.930;2023-01-25T14:18:32;96746.47;;;-0.57;100.00
49841;BME280;35738;49.890;5.930;2023-01-25T14:23:36;96748.25;;;-0.62;100.00
49841;BME280;35738;49.890;5.930;2023-01-25T14:26:02;96749.81;;;-1.55;100.00
49841;BME280;35738;49.890;5.930;2023-01-25T14:28:29;96742.97;;;-1.16;100.00
49841;BME280;35738;49.890;5.930;2023-01-25T14:30:57;96741.44;;;-0.88;100.00
49841;BME280;35738;49.890;5.930;2023-01-25T14:33:28;96738.16;;;-1.02;100.00
49841;BME280;35738;49.890;5.930;2023-01-25T14:36:04;96738.25;;;-0.85;100.00
49841;BME280;35738;49.890;5.930;2023-01-25T14:38:49;96734.97;;;-0.64;100.00
49841;BME280;35738;49.890;5.930;2023-01-25T14:44:17;96738.78;;;-0.37;100.00
49841;BME280;35738;49.890;5.930;2023-01-25T14:46:43;96739.94;;;-0.33;100.00
49841;BME280;35738;49.890;5.930;2023-01-25T14:49:22;96728.81;;;-0.48;100.00
49841;BME280;35738;49.890;5.930;2023-01-25T14:52:06;96731.41;;;-0.41;100.00
49841;BME280;35738;49.890;5.930;2023-01-25T14:54:42;96728.56;;;-0.35;100.00
49841;BME280;35738;49.890;5.930;2023-01-25T14:57:30;96731.97;;;-0.39;100.00
49841;BME280;35738;49.890;5.930;2023-01-25T14:59:58;96719.94;;;-0.60;100.00
49841;BME280;35738;49.890;5.930;2023-01-25T15:02:37;96732.38;;;-0.59;100.00
49841;BME280;35738;49.890;5.930;2023-01-25T15:05:17;96722.41;;;-0.58;100.00